Terminal Aerodrome Forecast
Issued by NWS

Home | Current Version | Previous Version | Text Only | Print | Product List | Glossary On
Versions: 1 2 3 4 5 6 7 8 9 10 11 12 13 14 15 16
000
FTUS43 KGLD 201744
TAFMCK
TAF
KMCK 201744Z 2018/2118 VRB05KT P6SM FEW150
     FM202200 11010KT P6SM FEW090 SCT150
     FM210200 04007KT P6SM VCTS FEW080CB SCT150
     FM210400 05007KT P6SM FEW070 BKN250
     FM211400 20009KT P6SM FEW070 BKN200=

USA.gov is the U.S. government's official web portal to all federal, state and local government web resources and services.